地図

経路データ

SID SEASON NUMBER BASIN SUBBASIN NAME ISO_TIME NATURE LAT LON WMO_WIND WMO_PRES WMO_AGENCY TRACK_TYPE DIST2LAND LANDFALL IFLAG USA_AGENCY USA_ATCF_ID USA_LAT USA_LON USA_RECORD USA_STATUS USA_WIND USA_PRES USA_SSHS USA_R34_NE USA_R34_SE USA_R34_SW USA_R34_NW USA_R50_NE USA_R50_SE USA_R50_SW USA_R50_NW USA_R64_NE USA_R64_SE USA_R64_SW USA_R64_NW USA_POCI USA_ROCI USA_RMW USA_EYE TOKYO_LAT TOKYO_LON TOKYO_GRADE TOKYO_WIND TOKYO_PRES TOKYO_R50_DIR TOKYO_R50_LONG TOKYO_R50_SHORT TOKYO_R30_DIR TOKYO_R30_LONG TOKYO_R30_SHORT TOKYO_LAND CMA_LAT CMA_LON CMA_CAT CMA_WIND CMA_PRES HKO_LAT HKO_LON HKO_CAT HKO_WIND HKO_PRES NEWDELHI_LAT NEWDELHI_LON NEWDELHI_GRADE NEWDELHI_WIND NEWDELHI_PRES NEWDELHI_CI NEWDELHI_DP NEWDELHI_POCI REUNION_LAT REUNION_LON REUNION_TYPE REUNION_WIND REUNION_PRES REUNION_TNUM REUNION_CI REUNION_RMW REUNION_R34_NE REUNION_R34_SE REUNION_R34_SW REUNION_R34_NW REUNION_R50_NE REUNION_R50_SE REUNION_R50_SW REUNION_R50_NW REUNION_R64_NE REUNION_R64_SE REUNION_R64_SW REUNION_R64_NW BOM_LAT BOM_LON BOM_TYPE BOM_WIND BOM_PRES BOM_TNUM BOM_CI BOM_RMW BOM_R34_NE BOM_R34_SE BOM_R34_SW BOM_R34_NW BOM_R50_NE BOM_R50_SE BOM_R50_SW BOM_R50_NW BOM_R64_NE BOM_R64_SE BOM_R64_SW BOM_R64_NW BOM_ROCI BOM_POCI BOM_EYE BOM_POS_METHOD BOM_PRES_METHOD NADI_LAT NADI_LON NADI_CAT NADI_WIND NADI_PRES WELLINGTON_LAT WELLINGTON_LON WELLINGTON_WIND WELLINGTON_PRES DS824_LAT DS824_LON DS824_STAGE DS824_WIND DS824_PRES TD9636_LAT TD9636_LON TD9636_STAGE TD9636_WIND TD9636_PRES TD9635_LAT TD9635_LON TD9635_WIND TD9635_PRES TD9635_ROCI NEUMANN_LAT NEUMANN_LON NEUMANN_CLASS NEUMANN_WIND NEUMANN_PRES MLC_LAT MLC_LON MLC_CLASS MLC_WIND MLC_PRES USA_GUST BOM_GUST BOM_GUST_PER REUNION_GUST REUNION_GUST_PER USA_SEAHGT USA_SEARAD_NE USA_SEARAD_SE USA_SEARAD_SW USA_SEARAD_NW STORM_SPEED STORM_DIR
1978223N18252 1978 66 EP MM IVA 1978-08-11 06:00:00 TS 18.0000 -108.000 30 hurdat_epa main 341 341 O________OO___ hurdat_epa EP091978 18.0000 -108.000 TD 30 -1 18.0000 -108.000 TC 30 18.0000 -108.000 1 30 10 268
1978223N18252 1978 66 EP MM IVA 1978-08-11 09:00:00 TS 17.9841 -108.510 main 386 386 P________PP___ EP091978 17.9853 -108.510 TD 37 0 17.9853 -108.510 TC 37 17.9791 -108.508 1 37 10 270
1978223N18252 1978 66 EP MM IVA 1978-08-11 12:00:00 TS 18.0000 -109.000 45 hurdat_epa main 430 430 O________OO___ hurdat_epa EP091978 18.0000 -109.000 TS 45 0 18.0000 -109.000 TC 45 18.0000 -109.000 2 45 9 276
1978223N18252 1978 66 EP MM IVA 1978-08-11 15:00:00 TS 18.0747 -109.459 main 471 471 P________PP___ EP091978 18.0698 -109.458 TS 50 0 18.0698 -109.458 TC 50 18.0942 -109.466 2 48 9 284
1978223N18252 1978 66 EP MM IVA 1978-08-11 18:00:00 TS 18.2090 -109.903 55 hurdat_epa main 504 504 O________OP___ hurdat_epa EP091978 18.2000 -109.900 TS 55 0 18.2000 -109.900 TC 55 18.2448 -109.913 2 52 9 291
1978223N18252 1978 66 EP MM IVA 1978-08-11 21:00:00 TS 18.4045 -110.351 main 504 486 P________PP___ EP091978 18.3999 -110.350 TS 57 0 18.3999 -110.350 TC 57 18.4231 -110.354 2 56 9 295
1978223N18252 1978 66 EP MM IVA 1978-08-12 00:00:00 TS 18.6000 -110.800 60 hurdat_epa main 488 481 O________OO___ hurdat_epa EP091978 18.6000 -110.800 TS 60 0 18.6000 -110.800 TC 60 18.6000 -110.800 2 60 9 290
1978223N18252 1978 66 EP MM IVA 1978-08-12 03:00:00 TS 18.7114 -111.247 main 485 481 P________PP___ EP091978 18.7073 -111.243 TS 60 0 18.7073 -111.243 TC 60 18.7278 -111.264 2 58 9 284
1978223N18252 1978 66 EP MM IVA 1978-08-12 06:00:00 TS 18.8099 -111.707 60 hurdat_epa main 491 488 O________OP___ hurdat_epa EP091978 18.8000 -111.700 TS 60 0 18.8000 -111.700 TC 60 18.8495 -111.736 2 57 9 285
1978223N18252 1978 66 EP MM IVA 1978-08-12 09:00:00 TS 18.9482 -112.191 main 502 492 P________PP___ EP091978 18.9424 -112.185 TS 57 0 18.9424 -112.185 TC 57 18.9715 -112.214 2 56 10 287
1978223N18252 1978 66 EP MM IVA 1978-08-12 12:00:00 TS 19.1000 -112.700 55 hurdat_epa main 508 508 O________OO___ hurdat_epa EP091978 19.1000 -112.700 TS 55 0 19.1000 -112.700 TC 55 19.1000 -112.700 2 55 10 287
1978223N18252 1978 66 EP MM IVA 1978-08-12 15:00:00 TS 19.2477 -113.245 main 530 528 P________PP___ EP091978 19.2500 -113.258 TS 55 0 19.2500 -113.258 TC 55 19.2385 -113.197 2 56 11 286
1978223N18252 1978 66 EP MM IVA 1978-08-12 18:00:00 TS 19.3969 -113.780 55 hurdat_epa main 555 555 O________OP___ hurdat_epa EP091978 19.4000 -113.800 TS 55 0 19.4000 -113.800 TC 55 19.3847 -113.700 2 57 10 287
1978223N18252 1978 66 EP MM IVA 1978-08-12 21:00:00 TS 19.5415 -114.247 main 577 577 P________PP___ EP091978 19.5422 -114.258 TS 57 0 19.5422 -114.258 TC 57 19.5385 -114.203 2 58 9 289
1978223N18252 1978 66 EP MM IVA 1978-08-13 00:00:00 TS 19.7000 -114.700 60 hurdat_epa main 604 604 O________OO___ hurdat_epa EP091978 19.7000 -114.700 TS 60 0 19.7000 -114.700 TC 60 19.7000 -114.700 2 60 10 291
1978223N18252 1978 66 EP MM IVA 1978-08-13 03:00:00 TS 19.8936 -115.203 main 621 621 P________PP___ EP091978 19.9000 -115.200 TS 62 0 19.9000 -115.200 TC 62 19.8679 -115.215 2 61 10 292
1978223N18252 1978 66 EP MM IVA 1978-08-13 06:00:00 TS 20.0885 -115.703 65 hurdat_epa main 633 633 O________OP___ hurdat_epa EP091978 20.1000 -115.700 HU 65 1 20.1000 -115.700 TC 65 20.0427 -115.717 2 62 10 291
1978223N18252 1978 66 EP MM IVA 1978-08-13 09:00:00 TS 20.2382 -116.175 main 655 647 P________PP___ EP091978 20.2424 -116.173 HU 65 1 20.2424 -116.173 TC 65 20.2211 -116.186 2 63 9 290
1978223N18252 1978 66 EP MM IVA 1978-08-13 12:00:00 TS 20.4000 -116.600 65 hurdat_epa main 666 665 O________OO___ hurdat_epa EP091978 20.4000 -116.600 HU 65 1 20.4000 -116.600 TC 65 20.4000 -116.600 4 65 9 298
1978223N18252 1978 66 EP MM IVA 1978-08-13 15:00:00 TS 20.6441 -116.979 main 680 672 P________PP___ EP091978 20.6574 -116.987 HU 65 1 20.6574 -116.987 TC 65 20.5906 -116.945 4 63 8 306
1978223N18252 1978 66 EP MM IVA 1978-08-13 18:00:00 TS 20.8759 -117.287 65 hurdat_epa main 680 680 O________OP___ hurdat_epa EP091978 20.9000 -117.300 HU 65 1 20.9000 -117.300 TC 65 20.7793 -117.233 4 62 6 306
1978223N18252 1978 66 EP MM IVA 1978-08-13 21:00:00 TS 21.0085 -117.508 main 688 688 P________PP___ EP091978 21.0223 -117.515 HU 62 0 21.0223 -117.515 TC 62 20.9533 -117.479 4 61 4 300
1978223N18252 1978 66 EP MM IVA 1978-08-14 00:00:00 TS 21.1000 -117.700 60 hurdat_epa main 698 698 O________OO___ hurdat_epa EP091978 21.1000 -117.700 TS 60 0 21.1000 -117.700 TC 60 21.1000 -117.700 2 60 5 296
1978223N18252 1978 66 EP MM IVA 1978-08-14 03:00:00 TS 21.2043 -117.948 main 708 708 P________PP___ EP091978 21.2076 -117.957 TS 57 0 21.2076 -117.957 TC 57 21.1912 -117.910 2 56 5 293
1978223N18252 1978 66 EP MM IVA 1978-08-14 06:00:00 TS 21.2914 -118.180 55 hurdat_epa main 727 727 O________OP___ hurdat_epa EP091978 21.3000 -118.200 TS 55 0 21.3000 -118.200 TC 55 21.2570 -118.101 2 52 4 291
1978223N18252 1978 66 EP MM IVA 1978-08-14 09:00:00 TS 21.3438 -118.338 main 736 736 P________PP___ EP091978 21.3499 -118.350 TS 50 0 21.3499 -118.350 TC 50 21.3194 -118.291 2 48 3 290
1978223N18252 1978 66 EP MM IVA 1978-08-14 12:00:00 TS 21.4000 -118.500 45 hurdat_epa main 747 747 O________OO___ hurdat_epa EP091978 21.4000 -118.500 TS 45 0 21.4000 -118.500 TC 45 21.4000 -118.500 2 45 4 291
1978223N18252 1978 66 EP MM IVA 1978-08-14 15:00:00 TS 21.4851 -118.730 main 759 759 P________PP___ EP091978 21.4775 -118.728 TS 40 0 21.4775 -118.728 TC 40 21.5154 -118.742 2 41 5 294
1978223N18252 1978 66 EP MM IVA 1978-08-14 18:00:00 TS 21.6096 -119.002 35 hurdat_epa main 779 776 O________OP___ hurdat_epa EP091978 21.6000 -119.000 TS 35 0 21.6000 -119.000 TC 35 21.6607 -119.012 2 37 6 299
1978223N18252 1978 66 EP MM IVA 1978-08-14 21:00:00 TS 21.7829 -119.307 main 780 778 P________PP___ EP091978 21.7776 -119.307 TS 32 -1 21.7776 -119.307 TC 32 21.8256 -119.301 2 33 7 305
1978223N18252 1978 66 EP MM IVA 1978-08-15 00:00:00 TS 22.0000 -119.600 30 hurdat_epa main 783 780 O________OO___ hurdat_epa EP091978 22.0000 -119.600 TD 30 -1 22.0000 -119.600 TC 30 22.0000 -119.600 1 30 7 314
1978223N18252 1978 66 EP MM IVA 1978-08-15 03:00:00 TS 22.2450 -119.822 main 780 768 P________P____ EP091978 22.2450 -119.822 TD 27 -1 22.2450 -119.822 TC 27 1 6 323
1978223N18252 1978 66 EP MM IVA 1978-08-15 06:00:00 TS 22.5000 -120.000 25 hurdat_epa main 768 O________O____ hurdat_epa EP091978 22.5000 -120.000 TD 25 -1 22.5000 -120.000 TC 25 1 6 327

IBTrACS Databaseについて

本データベースは、米国NOAAが公開する1842年以降の世界の熱帯低気圧のベストトラックデータアーカイブInternational Best Track Archive for Climate Stewardship (IBTrACS)を、ウェブで閲覧しやすい形式に変換したものです。

最終更新日:2021-10-21